createdAt,value
2023-05-20T00:00:35.716Z,2.50
2023-05-20T00:03:02.303Z,2.83
2023-05-20T00:05:28.928Z,2.50
2023-05-20T00:07:55.444Z,3.25
2023-05-20T00:10:21.943Z,2.58
2023-05-20T00:12:48.419Z,2.83
2023-05-20T00:15:15.063Z,2.80
2023-05-20T00:17:41.591Z,2.72
2023-05-20T00:20:08.605Z,2.97
2023-05-20T00:22:35.078Z,2.50
2023-05-20T00:25:01.587Z,2.83
2023-05-20T00:27:28.135Z,2.60
2023-05-20T00:29:54.651Z,2.95
2023-05-20T00:32:21.217Z,2.50
2023-05-20T00:34:57.370Z,2.63
2023-05-20T00:37:24.252Z,2.55
2023-05-20T00:39:51.171Z,2.72
2023-05-20T00:42:28.261Z,2.72
2023-05-20T00:44:56.015Z,2.60
2023-05-20T00:47:26.813Z,3.03
2023-05-20T00:49:53.567Z,3.10
2023-05-20T00:52:21.326Z,2.30
2023-05-20T00:54:47.879Z,2.70
2023-05-20T00:57:15.358Z,2.78
2023-05-20T00:59:43.496Z,2.35
2023-05-20T01:02:11.835Z,3.08
2023-05-20T01:04:38.631Z,2.40
2023-05-20T01:07:07.323Z,4.78
2023-05-20T01:09:33.978Z,2.53
2023-05-20T01:12:06.952Z,2.40
2023-05-20T01:14:39.531Z,2.50
2023-05-20T01:17:10.999Z,2.60
2023-05-20T01:19:44.126Z,3.22
2023-05-20T01:22:15.187Z,3.00
2023-05-20T01:24:43.064Z,3.20
2023-05-20T01:27:13.566Z,2.53
2023-05-20T01:29:42.144Z,2.60
2023-05-20T01:32:28.582Z,2.70
2023-05-20T01:34:56.289Z,3.03
2023-05-20T01:37:25.227Z,3.10
2023-05-20T01:39:53.995Z,2.65
2023-05-20T01:42:21.050Z,2.92
2023-05-20T01:44:47.625Z,3.03
2023-05-20T01:47:14.147Z,3.00
2023-05-20T01:49:41.488Z,2.67
2023-05-20T01:52:08.070Z,3.35
2023-05-20T01:54:34.603Z,2.63
2023-05-20T01:57:01.581Z,2.95
2023-05-20T01:59:28.131Z,2.88
2023-05-20T02:01:54.661Z,2.55
2023-05-20T02:04:22.646Z,2.63
2023-05-20T02:06:49.244Z,2.50
2023-05-20T02:09:15.917Z,2.88
2023-05-20T02:11:42.438Z,2.90
2023-05-20T02:14:08.949Z,3.10
2023-05-20T02:16:35.523Z,2.75
2023-05-20T02:19:02.228Z,2.85
2023-05-20T02:21:28.881Z,2.80
2023-05-20T02:23:55.381Z,3.97
2023-05-20T02:26:22.680Z,2.83
2023-05-20T02:28:50.812Z,3.33
2023-05-20T02:31:17.781Z,3.63
2023-05-20T02:33:45.206Z,3.03
2023-05-20T02:36:11.854Z,2.88
2023-05-20T02:38:38.417Z,3.47
2023-05-20T02:41:05.023Z,2.88
2023-05-20T02:43:32.772Z,3.60
2023-05-20T02:45:59.323Z,2.92
2023-05-20T02:48:26.346Z,3.25
2023-05-20T02:50:53.192Z,2.95
2023-05-20T02:53:19.750Z,3.00
2023-05-20T02:55:50.520Z,2.90
2023-05-20T02:58:17.326Z,3.33
2023-05-20T03:00:44.407Z,3.30
2023-05-20T03:03:11.176Z,3.70
2023-05-20T03:05:38.212Z,2.90
2023-05-20T03:08:10.008Z,2.90
2023-05-20T03:10:39.784Z,2.83
2023-05-20T03:13:11.556Z,2.83
2023-05-20T03:15:39.292Z,3.20
2023-05-20T03:18:07.228Z,3.15
2023-05-20T03:20:36.897Z,3.30
2023-05-20T03:23:03.798Z,3.15
2023-05-20T03:25:30.980Z,3.38
2023-05-20T03:28:00.735Z,3.20
2023-05-20T03:30:28.088Z,3.33
2023-05-20T03:32:58.633Z,2.90
2023-05-20T03:35:27.893Z,3.67
2023-05-20T03:37:54.408Z,3.10
2023-05-20T03:40:21.341Z,3.15
2023-05-20T03:42:48.023Z,3.47
2023-05-20T03:45:14.566Z,3.63
2023-05-20T03:47:41.251Z,3.20
2023-05-20T03:50:08.135Z,3.17
2023-05-20T03:52:34.794Z,2.90
2023-05-20T03:55:01.433Z,3.38
2023-05-20T03:57:29.425Z,3.55
2023-05-20T03:59:56.125Z,3.22
2023-05-20T04:02:22.889Z,3.25
2023-05-20T04:04:53.033Z,3.25
2023-05-20T04:07:19.841Z,3.70
2023-05-20T04:09:46.757Z,4.75
2023-05-20T04:12:13.957Z,3.50
2023-05-20T04:14:42.220Z,3.10
2023-05-20T04:17:09.547Z,3.53
2023-05-20T04:19:38.226Z,3.72
2023-05-20T04:22:04.919Z,3.50
2023-05-20T04:24:31.432Z,2.95
2023-05-20T04:26:57.980Z,3.10
2023-05-20T04:29:24.613Z,4.50
2023-05-20T04:31:52.101Z,3.45
2023-05-20T04:34:20.220Z,2.97
2023-05-20T04:36:47.121Z,3.60
2023-05-20T04:39:13.989Z,3.75
2023-05-20T04:41:40.520Z,3.15
2023-05-20T04:44:07.286Z,3.40
2023-05-20T04:46:33.987Z,3.47
2023-05-20T04:49:00.632Z,3.85
2023-05-20T04:51:27.302Z,3.38
2023-05-20T04:53:53.799Z,3.60
2023-05-20T04:56:20.901Z,3.53
2023-05-20T04:58:47.479Z,3.58
2023-05-20T05:01:14.049Z,3.38
2023-05-20T05:03:40.603Z,4.00
2023-05-20T05:06:07.124Z,3.60
2023-05-20T05:08:33.614Z,3.78
2023-05-20T05:11:00.134Z,3.42
2023-05-20T05:13:26.776Z,4.05
2023-05-20T05:16:00.434Z,3.72
2023-05-20T05:18:27.320Z,3.80
2023-05-20T05:21:04.275Z,3.17
2023-05-20T05:23:30.833Z,3.65
2023-05-20T05:25:57.618Z,3.65
2023-05-20T05:28:24.624Z,3.63
2023-05-20T05:30:51.415Z,3.85
2023-05-20T05:33:17.936Z,3.67
2023-05-20T05:35:44.648Z,4.10
2023-05-20T05:38:11.142Z,3.72
2023-05-20T05:40:37.740Z,3.83
2023-05-20T05:43:04.442Z,3.90
2023-05-20T05:45:31.177Z,3.72
2023-05-20T05:47:57.946Z,3.88
2023-05-20T05:50:24.529Z,4.10
2023-05-20T05:52:51.055Z,3.83
2023-05-20T05:55:18.460Z,3.60
2023-05-20T05:57:45.486Z,3.85
2023-05-20T06:00:12.481Z,4.53
2023-05-20T06:02:39.199Z,4.22
2023-05-20T06:05:06.420Z,4.03
2023-05-20T06:07:32.923Z,4.30
2023-05-20T06:09:59.531Z,4.25
2023-05-20T06:12:26.190Z,3.70
2023-05-20T06:14:52.747Z,4.30
2023-05-20T06:17:19.437Z,4.40
2023-05-20T06:19:46.278Z,4.00
2023-05-20T06:22:12.819Z,4.38
2023-05-20T06:24:39.360Z,4.63
2023-05-20T06:27:06.163Z,4.40
2023-05-20T06:29:32.665Z,4.57
2023-05-20T06:31:59.803Z,5.80
2023-05-20T06:34:26.424Z,4.10
2023-05-20T06:36:53.572Z,4.35
2023-05-20T06:39:20.150Z,4.13
2023-05-20T06:41:46.662Z,4.82
2023-05-20T06:44:13.165Z,4.20
2023-05-20T06:46:39.721Z,4.00
2023-05-20T06:49:06.288Z,4.72
2023-05-20T06:51:32.852Z,4.53
2023-05-20T06:53:59.359Z,4.57
2023-05-20T06:56:26.087Z,4.70
2023-05-20T06:58:52.686Z,4.47
2023-05-20T07:01:19.277Z,4.85
2023-05-20T07:03:45.912Z,4.80
2023-05-20T07:06:12.426Z,5.38
2023-05-20T07:08:39.102Z,4.78
2023-05-20T07:11:05.868Z,5.03
2023-05-20T07:13:32.409Z,4.95
2023-05-20T07:15:59.045Z,5.28
2023-05-20T07:18:25.674Z,5.00
2023-05-20T07:20:52.915Z,4.75
2023-05-20T07:23:19.509Z,4.82
2023-05-20T07:25:46.097Z,5.32
2023-05-20T07:28:16.135Z,5.18
2023-05-20T07:30:42.799Z,5.70
2023-05-20T07:33:09.308Z,5.60
2023-05-20T07:35:36.301Z,6.20
2023-05-20T07:38:03.048Z,5.63
2023-05-20T07:40:29.544Z,4.85
2023-05-20T07:42:56.158Z,5.60
2023-05-20T07:45:22.689Z,5.93
2023-05-20T07:47:50.688Z,5.05
2023-05-20T07:50:17.202Z,5.60
2023-05-20T07:52:55.280Z,5.43
2023-05-20T07:55:23.601Z,5.90
2023-05-20T07:57:50.406Z,5.68
2023-05-20T08:00:17.024Z,5.15
2023-05-20T08:02:43.766Z,7.60
2023-05-20T08:05:10.562Z,6.65
2023-05-20T08:07:37.090Z,6.22
2023-05-20T08:10:03.868Z,6.15
2023-05-20T08:12:30.357Z,6.05
2023-05-20T08:14:56.853Z,6.68
2023-05-20T08:17:23.489Z,5.43
2023-05-20T08:19:50.213Z,6.88
2023-05-20T08:22:17.114Z,5.82
2023-05-20T08:24:43.709Z,5.97
2023-05-20T08:27:10.230Z,6.38
2023-05-20T08:29:36.853Z,5.63
2023-05-20T08:32:03.433Z,6.60
2023-05-20T08:34:29.964Z,6.78
2023-05-20T08:36:57.777Z,6.53
2023-05-20T08:39:26.337Z,5.95
2023-05-20T08:41:52.970Z,5.95
2023-05-20T08:44:21.418Z,6.60
2023-05-20T08:46:48.892Z,6.40
2023-05-20T08:49:15.559Z,6.68
2023-05-20T08:51:43.111Z,6.53
2023-05-20T08:54:10.081Z,6.70
2023-05-20T08:56:36.932Z,7.22
2023-05-20T08:59:03.891Z,6.95
2023-05-20T09:01:30.486Z,6.78
2023-05-20T09:03:57.114Z,7.25
2023-05-20T09:06:24.159Z,6.57
2023-05-20T09:08:53.876Z,5.68
2023-05-20T09:11:22.320Z,6.50
2023-05-20T09:13:50.463Z,5.35
2023-05-20T09:16:17.097Z,6.78
2023-05-20T09:18:43.741Z,6.35
2023-05-20T09:21:10.615Z,7.53
2023-05-20T09:23:38.493Z,6.50
2023-05-20T09:26:05.657Z,7.32
2023-05-20T09:28:32.240Z,6.88
2023-05-20T09:30:59.840Z,6.30
2023-05-20T09:33:31.809Z,7.10
2023-05-20T09:36:04.295Z,7.38
2023-05-20T09:38:37.791Z,6.05
2023-05-20T09:41:13.726Z,6.72
2023-05-20T09:43:40.883Z,5.80
2023-05-20T09:46:08.390Z,6.72
2023-05-20T09:48:40.992Z,6.97
2023-05-20T09:51:08.260Z,6.93
2023-05-20T09:53:36.226Z,6.22
2023-05-20T09:56:03.359Z,5.72
2023-05-20T09:58:30.577Z,6.57
2023-05-20T10:00:57.458Z,6.07
2023-05-20T10:03:25.159Z,6.10
2023-05-20T10:06:04.761Z,5.90
2023-05-20T10:08:48.026Z,6.35
2023-05-20T10:11:24.201Z,6.20
2023-05-20T10:14:12.736Z,5.90
2023-05-20T10:17:08.747Z,6.03
2023-05-20T10:19:35.957Z,6.22
2023-05-20T10:22:05.684Z,5.15
2023-05-20T10:24:41.272Z,6.20
2023-05-20T10:27:10.078Z,5.70
2023-05-20T10:29:51.318Z,5.63
2023-05-20T10:32:25.889Z,6.10
2023-05-20T10:34:52.904Z,6.67
2023-05-20T10:37:33.534Z,5.55
2023-05-20T10:40:20.169Z,5.45
2023-05-20T10:42:48.090Z,4.57
2023-05-20T10:45:37.426Z,5.97
2023-05-20T10:48:04.411Z,6.88
2023-05-20T10:50:36.369Z,6.38
2023-05-20T10:53:13.336Z,6.70
2023-05-20T10:55:53.414Z,6.05
2023-05-20T10:58:21.392Z,5.57
2023-05-20T11:00:50.915Z,5.82
2023-05-20T11:03:18.659Z,6.18
2023-05-20T11:05:47.281Z,5.28
2023-05-20T11:10:47.203Z,7.10
2023-05-20T11:13:15.396Z,6.28
2023-05-20T11:15:42.405Z,6.38
2023-05-20T11:18:12.401Z,5.43
2023-05-20T11:20:39.010Z,6.72
2023-05-20T11:23:06.728Z,6.57
2023-05-20T11:25:33.588Z,6.30
2023-05-20T11:28:00.253Z,5.38
2023-05-20T11:30:26.967Z,6.20
2023-05-20T11:33:03.999Z,6.15
2023-05-20T11:35:32.212Z,5.45
2023-05-20T11:38:01.760Z,6.22
2023-05-20T11:40:32.922Z,5.85
2023-05-20T11:43:05.872Z,4.82
2023-05-20T11:45:45.468Z,5.15
2023-05-20T11:48:12.746Z,4.80
2023-05-20T11:50:41.036Z,5.13
2023-05-20T11:53:10.103Z,5.15
2023-05-20T11:55:53.869Z,4.65
2023-05-20T11:58:23.610Z,4.88
2023-05-20T12:00:55.005Z,4.82
2023-05-20T12:03:26.176Z,3.65
2023-05-20T12:05:53.462Z,4.15
2023-05-20T12:08:19.971Z,4.80
2023-05-20T12:10:46.967Z,5.25
2023-05-20T12:13:13.793Z,4.45
2023-05-20T12:15:41.194Z,4.53
2023-05-20T12:18:08.051Z,3.30
2023-05-20T12:20:35.093Z,4.93
2023-05-20T12:23:02.203Z,4.63
2023-05-20T12:25:29.561Z,4.55
2023-05-20T12:27:56.402Z,4.47
2023-05-20T12:30:23.984Z,4.45
2023-05-20T12:32:52.233Z,5.43
2023-05-20T12:35:40.445Z,4.95
2023-05-20T12:38:07.588Z,5.20
2023-05-20T12:40:35.229Z,4.30
2023-05-20T12:43:03.402Z,2.90
2023-05-20T12:45:30.430Z,4.65
2023-05-20T12:47:57.541Z,4.40
2023-05-20T12:50:24.699Z,3.03
2023-05-20T12:52:51.390Z,4.45
2023-05-20T12:55:17.938Z,4.10
2023-05-20T12:57:45.630Z,3.72
2023-05-20T13:00:13.119Z,5.88
2023-05-20T13:02:42.226Z,3.97
2023-05-20T13:05:09.727Z,4.28
2023-05-20T13:07:36.375Z,3.40
2023-05-20T13:10:03.038Z,3.75
2023-05-20T13:12:29.773Z,3.45
2023-05-20T13:14:56.282Z,3.45
2023-05-20T13:17:22.852Z,4.15
2023-05-20T13:19:49.403Z,3.38
2023-05-20T13:22:16.058Z,3.55
2023-05-20T13:24:42.620Z,3.30
2023-05-20T13:27:09.135Z,2.70
2023-05-20T13:29:35.771Z,3.53
2023-05-20T13:32:02.285Z,3.90
2023-05-20T13:34:30.385Z,3.17
2023-05-20T13:36:56.999Z,3.20
2023-05-20T13:39:23.581Z,3.38
2023-05-20T13:41:50.788Z,2.83
2023-05-20T13:44:17.301Z,3.20
2023-05-20T13:46:43.962Z,3.08
2023-05-20T13:49:10.514Z,3.53
2023-05-20T13:51:37.028Z,3.35
2023-05-20T13:54:03.947Z,3.42
2023-05-20T13:56:30.486Z,3.35
2023-05-20T13:58:57.269Z,3.70
2023-05-20T14:01:24.211Z,3.75
2023-05-20T14:03:50.980Z,3.75
2023-05-20T14:06:18.873Z,3.40
2023-05-20T14:08:46.189Z,3.80
2023-05-20T14:11:13.059Z,3.22
2023-05-20T14:13:39.664Z,3.63
2023-05-20T14:16:06.605Z,3.25
2023-05-20T14:18:33.148Z,3.78
2023-05-20T14:20:59.721Z,3.45
2023-05-20T14:23:27.325Z,3.78
2023-05-20T14:25:53.891Z,3.33
2023-05-20T14:28:20.384Z,3.75
2023-05-20T14:30:46.917Z,3.72
2023-05-20T14:33:13.478Z,4.20
2023-05-20T14:35:39.998Z,4.13
2023-05-20T14:38:06.933Z,3.78
2023-05-20T14:40:33.852Z,3.92
2023-05-20T14:43:00.621Z,4.40
2023-05-20T14:45:27.123Z,3.85
2023-05-20T14:47:56.434Z,4.38
2023-05-20T14:50:22.977Z,4.18
2023-05-20T14:52:49.684Z,3.88
2023-05-20T14:55:16.254Z,3.72
2023-05-20T14:57:43.473Z,3.05
2023-05-20T15:00:10.647Z,3.45
2023-05-20T15:02:37.430Z,3.80
2023-05-20T15:05:04.206Z,4.40
2023-05-20T15:07:30.766Z,4.07
2023-05-20T15:09:57.259Z,4.30
2023-05-20T15:12:23.836Z,3.50
2023-05-20T15:14:50.344Z,4.13
2023-05-20T15:17:17.109Z,4.18
2023-05-20T15:19:43.667Z,3.90
2023-05-20T15:22:10.235Z,3.95
2023-05-20T15:24:36.750Z,3.88
2023-05-20T15:27:03.849Z,4.60
2023-05-20T15:29:33.425Z,3.72
2023-05-20T15:32:00.046Z,3.70
2023-05-20T15:34:26.527Z,3.83
2023-05-20T15:36:53.136Z,3.47
2023-05-20T15:39:19.652Z,3.65
2023-05-20T15:41:48.005Z,3.58
2023-05-20T15:44:14.573Z,4.10
2023-05-20T15:46:44.913Z,4.25
2023-05-20T15:49:12.678Z,4.07
2023-05-20T15:51:39.921Z,4.13
2023-05-20T15:54:07.921Z,3.85
2023-05-20T15:56:34.487Z,4.20
2023-05-20T15:59:01.049Z,3.92
2023-05-20T16:01:28.558Z,3.63
2023-05-20T16:03:57.776Z,4.20
2023-05-20T16:06:24.832Z,3.58
2023-05-20T16:08:51.470Z,4.40
2023-05-20T16:11:18.031Z,4.20
2023-05-20T16:13:44.551Z,4.03
2023-05-20T16:16:13.455Z,3.97
2023-05-20T16:18:40.316Z,4.18
2023-05-20T16:21:07.942Z,3.90
2023-05-20T16:23:34.964Z,3.83
2023-05-20T16:26:01.739Z,4.05
2023-05-20T16:28:28.334Z,3.83
2023-05-20T16:30:54.807Z,4.10
2023-05-20T16:33:21.309Z,3.65
2023-05-20T16:35:47.987Z,3.80
2023-05-20T16:38:14.484Z,3.80
2023-05-20T16:40:41.227Z,3.63
2023-05-20T16:43:07.806Z,4.88
2023-05-20T16:45:34.498Z,3.53
2023-05-20T16:48:01.424Z,3.58
2023-05-20T16:50:28.036Z,3.53
2023-05-20T16:52:55.499Z,3.70
2023-05-20T16:55:22.245Z,4.10
2023-05-20T16:57:50.475Z,3.58
2023-05-20T17:00:17.175Z,3.55
2023-05-20T17:02:43.790Z,3.90
2023-05-20T17:05:10.652Z,3.75
2023-05-20T17:07:37.270Z,3.83
2023-05-20T17:10:04.128Z,3.90
2023-05-20T17:12:30.724Z,4.25
2023-05-20T17:14:57.836Z,3.90
2023-05-20T17:17:24.339Z,3.67
2023-05-20T17:19:51.050Z,3.70
2023-05-20T17:22:17.625Z,3.90
2023-05-20T17:24:44.153Z,3.72
2023-05-20T17:27:10.722Z,4.03
2023-05-20T17:29:37.210Z,3.80
2023-05-20T17:32:04.018Z,3.70
2023-05-20T17:34:30.562Z,4.03
2023-05-20T17:36:57.590Z,4.80
2023-05-20T17:39:24.107Z,4.32
2023-05-20T17:41:50.625Z,4.28
2023-05-20T17:44:17.178Z,4.25
2023-05-20T17:46:43.816Z,4.07
2023-05-20T17:49:10.554Z,4.00
2023-05-20T17:51:37.104Z,3.60
2023-05-20T17:54:03.778Z,3.70
2023-05-20T17:56:30.358Z,3.70
2023-05-20T17:58:56.913Z,3.92
2023-05-20T18:01:23.708Z,4.15
2023-05-20T18:03:50.727Z,4.13
2023-05-20T18:06:18.058Z,4.13
2023-05-20T18:08:44.718Z,4.63
2023-05-20T18:11:11.294Z,3.75
2023-05-20T18:13:37.969Z,4.18
2023-05-20T18:16:05.033Z,4.70
2023-05-20T18:18:31.723Z,4.80
2023-05-20T18:20:58.256Z,4.32
2023-05-20T18:23:24.777Z,4.85
2023-05-20T18:25:51.624Z,5.07
2023-05-20T18:28:18.208Z,4.90
2023-05-20T18:30:44.746Z,5.45
2023-05-20T18:33:11.348Z,5.15
2023-05-20T18:35:39.109Z,5.70
2023-05-20T18:38:05.725Z,6.47
2023-05-20T18:40:32.319Z,5.75
2023-05-20T18:42:59.040Z,5.40
2023-05-20T18:45:25.914Z,7.25
2023-05-20T18:47:54.458Z,6.95
2023-05-20T18:50:21.104Z,7.43
2023-05-20T18:52:47.747Z,6.85
2023-05-20T18:55:14.473Z,5.95
2023-05-20T18:57:41.198Z,6.75
2023-05-20T19:00:11.929Z,6.55
2023-05-20T19:02:39.881Z,6.18
2023-05-20T19:05:11.084Z,6.80
2023-05-20T19:07:38.862Z,6.63
2023-05-20T19:10:05.941Z,6.45
2023-05-20T19:12:32.808Z,7.07
2023-05-20T19:14:59.370Z,7.47
2023-05-20T19:17:26.147Z,7.45
2023-05-20T19:19:52.682Z,6.32
2023-05-20T19:22:19.210Z,6.78
2023-05-20T19:24:45.735Z,8.35
2023-05-20T19:27:12.217Z,7.90
2023-05-20T19:29:38.786Z,7.47
2023-05-20T19:32:05.726Z,7.40
2023-05-20T19:34:32.262Z,6.70
2023-05-20T19:36:58.815Z,7.20
2023-05-20T19:39:26.711Z,6.72
2023-05-20T19:41:53.442Z,7.55
2023-05-20T19:44:20.078Z,8.18
2023-05-20T19:46:47.318Z,7.18
2023-05-20T19:49:13.829Z,7.85
2023-05-20T19:51:40.394Z,7.63
2023-05-20T19:54:06.879Z,7.50
2023-05-20T19:56:33.405Z,6.80
2023-05-20T19:59:01.791Z,7.13
2023-05-20T20:01:28.666Z,8.05
2023-05-20T20:03:55.461Z,7.30
2023-05-20T20:06:22.407Z,8.07
2023-05-20T20:08:49.228Z,7.35
2023-05-20T20:11:15.961Z,7.57
2023-05-20T20:13:42.498Z,7.68
2023-05-20T20:16:09.143Z,8.30
2023-05-20T20:18:35.712Z,8.40
2023-05-20T20:21:05.730Z,7.38
2023-05-20T20:23:32.822Z,8.10
2023-05-20T20:25:59.395Z,8.50
2023-05-20T20:28:26.143Z,7.78
2023-05-20T20:30:52.702Z,8.18
2023-05-20T20:33:19.707Z,8.48
2023-05-20T20:35:46.760Z,8.23
2023-05-20T20:38:13.444Z,8.73
2023-05-20T20:40:41.848Z,9.18
2023-05-20T20:43:10.417Z,8.93
2023-05-20T20:45:37.071Z,9.48
2023-05-20T20:48:08.180Z,8.55
2023-05-20T20:50:35.738Z,9.27
2023-05-20T20:53:02.570Z,8.32
2023-05-20T20:55:32.180Z,9.23
2023-05-20T20:58:02.492Z,8.43
2023-05-20T21:00:29.402Z,8.30
2023-05-20T21:02:56.237Z,8.68
2023-05-20T21:05:26.505Z,8.93
2023-05-20T21:07:58.326Z,8.57
2023-05-20T21:10:29.759Z,8.93
2023-05-20T21:12:57.270Z,8.85
2023-05-20T21:15:24.655Z,9.63
2023-05-20T21:17:51.867Z,9.90
2023-05-20T21:20:24.191Z,9.23
2023-05-20T21:22:50.860Z,9.98
2023-05-20T21:25:17.480Z,9.60
2023-05-20T21:27:44.094Z,9.77
2023-05-20T21:30:11.601Z,9.50
2023-05-20T21:32:38.652Z,9.73
2023-05-20T21:35:05.721Z,8.48
2023-05-20T21:37:32.271Z,9.65
2023-05-20T21:39:58.843Z,9.73
2023-05-20T21:42:25.462Z,9.48
2023-05-20T21:44:51.945Z,9.77
2023-05-20T21:47:20.561Z,9.95
2023-05-20T21:49:48.198Z,9.35
2023-05-20T21:52:14.823Z,8.65
2023-05-20T21:54:41.757Z,10.23
2023-05-20T21:57:08.310Z,9.73
2023-05-20T21:59:35.121Z,11.00
2023-05-20T22:02:01.843Z,9.13
2023-05-20T22:04:28.744Z,10.77
2023-05-20T22:06:56.485Z,8.68
2023-05-20T22:09:23.136Z,10.27
2023-05-20T22:11:49.701Z,9.60
2023-05-20T22:14:16.852Z,10.52
2023-05-20T22:16:46.826Z,9.88
2023-05-20T22:19:15.182Z,9.07
2023-05-20T22:21:50.097Z,10.10
2023-05-20T22:24:17.838Z,9.93
2023-05-20T22:26:44.588Z,12.13
2023-05-20T22:29:11.104Z,11.23
2023-05-20T22:31:38.247Z,10.02
2023-05-20T22:34:05.487Z,9.57
2023-05-20T22:36:36.198Z,11.50
2023-05-20T22:39:04.469Z,10.27
2023-05-20T22:41:31.401Z,9.93
2023-05-20T22:43:58.007Z,10.05
2023-05-20T22:46:25.228Z,10.00
2023-05-20T22:48:55.377Z,10.07
2023-05-20T22:51:21.978Z,11.07
2023-05-20T22:53:49.069Z,10.20
2023-05-20T22:56:15.756Z,11.45
2023-05-20T22:58:42.593Z,9.80
2023-05-20T23:01:10.427Z,9.93
2023-05-20T23:03:37.923Z,9.95
2023-05-20T23:06:04.724Z,9.95
2023-05-20T23:08:31.316Z,9.48
2023-05-20T23:10:57.805Z,9.90
2023-05-20T23:13:24.290Z,9.90
2023-05-20T23:15:50.851Z,9.80
2023-05-20T23:18:18.323Z,9.93
2023-05-20T23:20:44.872Z,10.57
2023-05-20T23:23:14.442Z,9.07
2023-05-20T23:25:43.011Z,9.05
2023-05-20T23:28:12.944Z,9.65
2023-05-20T23:30:39.656Z,9.82
2023-05-20T23:33:06.567Z,10.25
2023-05-20T23:35:33.302Z,9.68
2023-05-20T23:37:59.924Z,10.65
2023-05-20T23:40:32.298Z,8.73
2023-05-20T23:42:58.817Z,8.57
2023-05-20T23:45:25.338Z,8.95
2023-05-20T23:47:51.851Z,9.00
2023-05-20T23:50:18.372Z,9.27
2023-05-20T23:52:46.253Z,9.48
2023-05-20T23:55:14.315Z,8.80
2023-05-20T23:57:41.363Z,8.13
